Time;durP1;ratioP1;P1;durP2;ratioP2;P2;SDS_P1;SDS_P2;PMS_P1;PMS_P2;Temp;Humidity;BMP_temperature;BMP_pressure;BME280_temperature;BME280_humidity;BME280_pressure;Samples;Min_cycle;Max_cycle;Signal;HPM_P1;HPM_P2
2022/07/31 04:02:36;;;;;;;8.20;7.70;;;18.80;99.90;;;;;;4992821;23;20981;-66
2022/07/31 04:05:03;;;;;;;7.97;7.47;;;18.70;99.90;;;;;;4977467;28;20455;-66
2022/07/31 04:07:30;;;;;;;8.67;7.80;;;18.70;99.90;;;;;;4979135;28;20450;-65
2022/07/31 04:09:57;;;;;;;9.17;8.50;;;18.70;99.90;;;;;;4980617;28;20482;-67
2022/07/31 04:12:23;;;;;;;8.00;7.40;;;18.70;99.90;;;;;;4980238;28;20482;-66
2022/07/31 04:14:50;;;;;;;8.73;7.90;;;18.60;99.90;;;;;;4979202;28;20455;-66
2022/07/31 04:17:17;;;;;;;9.50;8.80;;;18.60;99.90;;;;;;4977560;28;20458;-66
2022/07/31 04:19:45;;;;;;;8.97;8.33;;;18.50;99.90;;;;;;4977881;28;20450;-66
2022/07/31 04:22:12;;;;;;;9.33;8.73;;;18.50;99.90;;;;;;4977122;28;20482;-66
2022/07/31 04:24:39;;;;;;;9.37;8.70;;;18.40;99.90;;;;;;4977066;28;20465;-66
2022/07/31 04:27:06;;;;;;;9.70;9.00;;;18.40;99.90;;;;;;4976985;28;20465;-66
2022/07/31 04:29:33;;;;;;;10.13;9.30;;;18.30;99.90;;;;;;4977067;28;20471;-66
2022/07/31 04:32:00;;;;;;;9.47;8.77;;;18.20;99.90;;;;;;4976906;28;20533;-66
2022/07/31 04:34:26;;;;;;;10.13;9.33;;;18.10;99.90;;;;;;4976973;28;20458;-66
2022/07/31 04:36:55;;;;;;;11.67;10.77;;;18.10;99.90;;;;;;4976575;28;20969;-67
2022/07/31 04:39:21;;;;;;;9.93;9.20;;;18.10;99.90;;;;;;4976710;28;20942;-66
2022/07/31 04:41:48;;;;;;;9.43;8.80;;;18.10;99.90;;;;;;4976678;28;20479;-66
2022/07/31 04:44:15;;;;;;;10.10;9.40;;;18.10;99.90;;;;;;4976309;28;20465;-66
2022/07/31 04:46:42;;;;;;;9.73;8.77;;;18.00;99.90;;;;;;4976178;28;20938;-66
2022/07/31 04:49:11;;;;;;;9.60;8.93;;;18.00;99.90;;;;;;4976475;28;20811;-66
2022/07/31 04:51:38;;;;;;;9.67;8.80;;;18.00;99.90;;;;;;4976530;28;20477;-66
2022/07/31 04:54:06;;;;;;;9.77;9.00;;;18.10;99.90;;;;;;4976576;28;20455;-66
2022/07/31 04:56:34;;;;;;;7.83;7.23;;;18.20;99.90;;;;;;4976387;28;20458;-66
2022/07/31 04:59:03;;;;;;;9.27;8.37;;;18.20;99.90;;;;;;4976338;28;20447;-66
2022/07/31 05:01:30;;;;;;;9.30;8.60;;;18.30;99.90;;;;;;4975968;28;20493;-67
2022/07/31 05:03:57;;;;;;;8.70;7.67;;;18.30;99.90;;;;;;4976213;28;20458;-66
2022/07/31 05:06:33;;;;;;;8.43;7.90;;;18.30;99.90;;;;;;4976315;28;20459;-65
2022/07/31 05:08:59;;;;;;;9.00;8.40;;;18.40;99.90;;;;;;4976328;28;20832;-66
2022/07/31 05:11:28;;;;;;;8.03;7.43;;;18.40;99.90;;;;;;4976012;28;20478;-66
2022/07/31 05:13:56;;;;;;;7.70;7.10;;;18.40;99.90;;;;;;4976151;28;20495;-66
2022/07/31 05:16:24;;;;;;;8.23;7.40;;;18.50;99.90;;;;;;4976377;28;20462;-67
2022/07/31 05:18:51;;;;;;;7.70;7.10;;;18.50;99.90;;;;;;4976454;28;20451;-66
2022/07/31 05:21:19;;;;;;;7.40;6.77;;;18.60;99.90;;;;;;4976117;28;20478;-67
2022/07/31 05:23:48;;;;;;;9.90;7.83;;;18.60;99.90;;;;;;4975907;28;20824;-67
2022/07/31 05:26:17;;;;;;;7.77;7.17;;;18.70;99.90;;;;;;4975894;28;20458;-67
2022/07/31 05:28:45;;;;;;;7.20;6.70;;;18.80;99.90;;;;;;4975704;28;21020;-66
2022/07/31 05:31:12;;;;;;;8.13;7.40;;;18.90;99.90;;;;;;4975858;28;20489;-66
2022/07/31 05:33:39;;;;;;;7.53;7.03;;;18.90;99.90;;;;;;4975930;28;20459;-67
2022/07/31 05:36:07;;;;;;;7.40;6.70;;;19.10;99.90;;;;;;4975880;28;20534;-66
2022/07/31 05:38:34;;;;;;;8.13;7.43;;;19.10;99.90;;;;;;4975738;28;20505;-66
2022/07/31 05:41:01;;;;;;;7.23;6.63;;;19.20;99.90;;;;;;4975567;28;20474;-65
2022/07/31 05:43:28;;;;;;;6.93;6.37;;;19.30;99.90;;;;;;4975961;28;20860;-66
2022/07/31 05:45:56;;;;;;;7.60;7.00;;;19.50;99.90;;;;;;4975787;28;20497;-65
2022/07/31 05:48:23;;;;;;;7.40;6.80;;;19.60;99.90;;;;;;4975618;28;20463;-65
2022/07/31 05:50:51;;;;;;;6.67;6.27;;;19.80;99.90;;;;;;4975510;28;20474;-65
2022/07/31 05:53:19;;;;;;;6.57;5.87;;;19.90;99.90;;;;;;4975661;28;20458;-65
2022/07/31 05:55:47;;;;;;;7.23;6.60;;;20.00;99.90;;;;;;4975456;28;20465;-66
2022/07/31 05:58:15;;;;;;;7.90;6.10;;;20.10;99.90;;;;;;4975395;28;20794;-65
2022/07/31 06:00:43;;;;;;;6.80;6.20;;;20.20;99.90;;;;;;4975115;28;20478;-65
2022/07/31 06:03:11;;;;;;;6.03;5.63;;;20.30;99.90;;;;;;4975300;28;20455;-65
2022/07/31 06:05:38;;;;;;;6.70;6.20;;;20.50;99.90;;;;;;4975308;28;20494;-65
2022/07/31 06:08:05;;;;;;;8.60;6.00;;;20.60;99.90;;;;;;4975240;28;20466;-65
2022/07/31 06:10:32;;;;;;;6.10;5.50;;;20.70;99.90;;;;;;4975129;28;20489;-65
2022/07/31 06:12:59;;;;;;;8.90;5.87;;;20.80;99.90;;;;;;4975188;28;20455;-65
2022/07/31 06:15:26;;;;;;;7.17;6.20;;;20.80;99.90;;;;;;4975171;28;20823;-65
2022/07/31 06:17:52;;;;;;;7.73;5.77;;;21.00;99.90;;;;;;4975083;28;20466;-66
2022/07/31 06:20:21;;;;;;;6.70;5.47;;;21.10;99.90;;;;;;4974834;28;20446;-65
2022/07/31 06:22:47;;;;;;;6.43;5.93;;;21.20;99.90;;;;;;4975885;28;20553;-65
2022/07/31 06:25:15;;;;;;;6.23;5.77;;;21.30;99.90;;;;;;4974642;28;20965;-65
2022/07/31 06:27:42;;;;;;;6.70;6.10;;;21.40;99.90;;;;;;4975009;28;20458;-65
2022/07/31 06:30:10;;;;;;;6.00;5.60;;;21.50;99.90;;;;;;4974960;28;20481;-65
2022/07/31 06:32:37;;;;;;;7.50;6.20;;;21.50;99.90;;;;;;4974825;28;20454;-65
2022/07/31 06:35:05;;;;;;;6.73;6.20;;;21.60;99.90;;;;;;4974755;28;20454;-66
2022/07/31 06:37:33;;;;;;;6.23;5.83;;;21.60;99.90;;;;;;4977288;28;20505;-66
2022/07/31 06:40:00;;;;;;;6.20;5.70;;;21.70;99.90;;;;;;4978815;28;20964;-66
2022/07/31 06:42:27;;;;;;;5.87;5.57;;;21.70;99.90;;;;;;4983125;28;20501;-65
2022/07/31 06:44:54;;;;;;;6.30;5.80;;;21.80;99.90;;;;;;4984835;28;20509;-66
2022/07/31 06:47:23;;;;;;;6.20;5.57;;;21.90;99.90;;;;;;4982441;28;20454;-66
2022/07/31 06:49:50;;;;;;;5.67;5.27;;;22.00;99.90;;;;;;4978790;28;20478;-65
2022/07/31 06:52:17;;;;;;;6.43;5.70;;;22.00;99.90;;;;;;4979702;28;20478;-65
2022/07/31 06:54:45;;;;;;;6.50;5.90;;;21.90;99.90;;;;;;4978728;28;20507;-65
2022/07/31 06:57:12;;;;;;;8.13;6.17;;;22.00;99.90;;;;;;4978513;28;20459;-65
2022/07/31 06:59:39;;;;;;;5.60;5.10;;;22.00;99.90;;;;;;4978351;28;20513;-66
2022/07/31 07:02:06;;;;;;;6.70;5.73;;;22.20;99.90;;;;;;4978308;28;20494;-66
2022/07/31 07:04:33;;;;;;;5.20;4.90;;;22.30;99.90;;;;;;4978543;28;20454;-66
2022/07/31 07:06:59;;;;;;;6.13;5.07;;;22.40;99.90;;;;;;4978377;28;20549;-66
2022/07/31 07:09:26;;;;;;;5.43;4.93;;;22.30;99.90;;;;;;4978311;28;20482;-66
2022/07/31 07:11:54;;;;;;;5.43;5.00;;;22.40;99.90;;;;;;4978437;28;20486;-66
2022/07/31 07:14:21;;;;;;;5.13;4.70;;;22.60;99.90;;;;;;4978591;28;20454;-65
2022/07/31 07:16:47;;;;;;;7.60;4.90;;;22.70;99.90;;;;;;4978546;28;20465;-65
2022/07/31 07:19:14;;;;;;;6.83;5.27;;;22.80;99.90;;;;;;4978120;28;20864;-66
2022/07/31 07:21:41;;;;;;;9.50;5.10;;;23.00;99.90;;;;;;4980030;28;20978;-65
2022/07/31 07:24:08;;;;;;;5.17;4.77;;;23.20;99.90;;;;;;4980427;28;20458;-65
2022/07/31 07:26:34;;;;;;;4.70;4.33;;;23.30;99.90;;;;;;4978463;28;20821;-66
2022/07/31 07:29:03;;;;;;;5.67;4.80;;;23.40;99.90;;;;;;4978162;28;20454;-66
2022/07/31 07:31:30;;;;;;;4.53;4.17;;;23.50;99.90;;;;;;4978385;28;20478;-66
2022/07/31 07:33:57;;;;;;;5.50;5.00;;;23.70;99.90;;;;;;4977599;28;20965;-66
2022/07/31 07:36:24;;;;;;;6.57;5.10;;;23.90;99.90;;;;;;4977921;28;20949;-66
2022/07/31 07:38:52;;;;;;;5.10;4.80;;;24.10;99.90;;;;;;4977808;28;20454;-66
2022/07/31 07:41:18;;;;;;;4.67;4.37;;;24.20;99.90;;;;;;4977981;28;20881;-68
2022/07/31 07:43:45;;;;;;;7.63;4.63;;;24.50;99.90;;;;;;4977961;28;20457;-66
2022/07/31 07:46:14;;;;;;;5.70;4.10;;;24.50;99.90;;;;;;4977401;28;20462;-66
2022/07/31 07:48:40;;;;;;;4.30;4.00;;;24.60;99.90;;;;;;4977442;28;20459;-66
2022/07/31 07:51:07;;;;;;;4.90;4.60;;;24.80;99.90;;;;;;4978252;28;20490;-66
2022/07/31 07:53:34;;;;;;;4.47;4.17;;;25.00;99.90;;;;;;4977930;28;20458;-66
2022/07/31 07:56:00;;;;;;;3.90;3.70;;;25.10;99.50;;;;;;4977941;28;20458;-66
2022/07/31 07:58:27;;;;;;;4.80;4.40;;;25.30;98.80;;;;;;4977999;28;20454;-66
2022/07/31 08:00:54;;;;;;;4.37;4.00;;;25.50;98.30;;;;;;4977228;28;20985;-66
2022/07/31 08:03:22;;;;;;;5.07;3.70;;;25.60;97.20;;;;;;4977825;28;20473;-66
2022/07/31 08:05:49;;;;;;;5.03;4.03;;;25.60;97.60;;;;;;4978019;28;20785;-67
2022/07/31 08:08:15;;;;;;;7.30;4.37;;;25.60;95.60;;;;;;4977760;28;20451;-67
2022/07/31 08:10:42;;;;;;;7.53;4.40;;;25.70;96.20;;;;;;4977489;28;20489;-67
2022/07/31 08:13:09;;;;;;;4.50;4.20;;;25.90;94.40;;;;;;4977691;28;20513;-67
2022/07/31 08:15:35;;;;;;;4.00;3.70;;;26.00;93.90;;;;;;4977716;28;20513;-68
2022/07/31 08:18:02;;;;;;;3.80;3.40;;;26.30;94.20;;;;;;4977545;28;20481;-68
2022/07/31 08:20:30;;;;;;;4.40;4.03;;;26.50;92.90;;;;;;4977389;28;20457;-66
2022/07/31 08:22:57;;;;;;;5.10;4.20;;;26.80;91.60;;;;;;4976945;28;20470;-67
2022/07/31 08:25:24;;;;;;;4.70;3.67;;;26.70;91.80;;;;;;4976831;28;20466;-67
2022/07/31 08:27:50;;;;;;;3.70;3.30;;;26.90;92.00;;;;;;4977212;28;20868;-68
2022/07/31 08:30:17;;;;;;;4.07;3.77;;;27.20;91.90;;;;;;4976876;28;20513;-67
2022/07/31 08:32:44;;;;;;;4.70;4.30;;;27.60;91.10;;;;;;4976854;28;20506;-67
2022/07/31 08:35:10;;;;;;;4.80;4.57;;;28.20;90.30;;;;;;4976919;28;20458;-67
2022/07/31 08:37:40;;;;;;;4.80;4.40;;;28.60;88.30;;;;;;4976773;28;20454;-67
2022/07/31 08:40:08;;;;;;;7.90;4.83;;;29.20;84.60;;;;;;4977877;28;20447;-67
2022/07/31 08:42:35;;;;;;;4.40;3.40;;;30.10;81.40;;;;;;4976680;28;20477;-67
2022/07/31 08:45:05;;;;;;;5.13;3.30;;;30.90;78.10;;;;;;4976764;28;20868;-67
2022/07/31 08:47:32;;;;;;;4.03;3.83;;;31.70;76.10;;;;;;4976621;28;20458;-67
2022/07/31 08:50:00;;;;;;;6.40;3.60;;;32.60;68.30;;;;;;4976702;28;20565;-67
2022/07/31 08:52:31;;;;;;;3.63;3.07;;;33.20;66.70;;;;;;4976578;28;20478;-67
2022/07/31 08:55:01;;;;;;;3.50;3.20;;;33.90;65.30;;;;;;4976208;28;20808;-67
2022/07/31 08:57:28;;;;;;;2.50;2.30;;;34.80;57.50;;;;;;4976888;28;20458;-67
2022/07/31 08:59:55;;;;;;;2.43;2.23;;;35.30;54.90;;;;;;4975541;28;20450;-67
2022/07/31 09:02:21;;;;;;;3.10;2.70;;;35.50;51.40;;;;;;4975872;28;20482;-67
2022/07/31 09:04:48;;;;;;;2.70;2.50;;;35.50;50.70;;;;;;4975988;28;20942;-67
2022/07/31 09:07:16;;;;;;;2.30;2.13;;;35.50;49.20;;;;;;4976240;28;20454;-67
2022/07/31 09:09:43;;;;;;;2.70;2.60;;;35.60;49.50;;;;;;4976173;28;20454;-67
2022/07/31 09:12:11;;;;;;;2.33;2.13;;;35.90;50.30;;;;;;4976224;28;20513;-67
2022/07/31 09:14:38;;;;;;;2.87;2.67;;;35.90;48.10;;;;;;4976196;28;20462;-67
2022/07/31 09:17:08;;;;;;;2.83;2.73;;;35.80;48.00;;;;;;4976032;28;20477;-68
2022/07/31 09:19:39;;;;;;;3.33;3.03;;;35.70;49.00;;;;;;4976215;28;20442;-67
2022/07/31 09:22:06;;;;;;;3.07;2.87;;;35.60;47.70;;;;;;4976323;28;20474;-69
2022/07/31 09:24:35;;;;;;;2.77;2.57;;;35.90;48.20;;;;;;4976348;28;20462;-69
2022/07/31 09:27:04;;;;;;;4.07;2.08;;;36.00;47.90;;;;;;4975458;28;20466;-69
2022/07/31 09:29:36;;;;;;;3.30;2.20;;;36.70;48.60;;;;;;4976176;28;20226;-69
2022/07/31 09:32:15;;;;;;;3.10;2.90;;;37.20;45.10;;;;;;4975962;28;20473;-68
2022/07/31 09:34:42;;;;;;;3.60;3.27;;;37.50;45.00;;;;;;4976287;28;20458;-67
2022/07/31 09:37:10;;;;;;;2.30;2.20;;;37.70;44.50;;;;;;4975657;28;20464;-68
2022/07/31 09:39:38;;;;;;;4.83;2.57;;;38.10;44.10;;;;;;4975917;28;20450;-67
2022/07/31 09:42:05;;;;;;;2.73;2.53;;;38.00;43.20;;;;;;4975469;28;20821;-67
2022/07/31 09:44:41;;;;;;;2.60;2.40;;;37.20;43.60;;;;;;4975499;28;20466;-67
2022/07/31 09:47:21;;;;;;;2.70;2.40;;;36.20;47.40;;;;;;4975524;28;20199;-68
2022/07/31 09:49:54;;;;;;;2.27;2.17;;;35.70;46.10;;;;;;4975808;28;20497;-67
2022/07/31 09:52:21;;;;;;;2.40;2.30;;;34.90;46.00;;;;;;4975889;28;20517;-68
2022/07/31 09:54:48;;;;;;;2.60;2.40;;;34.40;47.10;;;;;;4975575;28;20454;-67
2022/07/31 09:57:16;;;;;;;2.57;2.37;;;34.10;47.40;;;;;;4975503;28;20542;-66
2022/07/31 09:59:44;;;;;;;3.80;2.37;;;33.20;48.80;;;;;;4975789;28;20451;-67
2022/07/31 10:02:14;;;;;;;2.50;2.30;;;32.80;49.60;;;;;;4975265;28;20486;-67
2022/07/31 10:04:42;;;;;;;2.33;2.23;;;33.10;49.10;;;;;;4975474;28;20461;-67
2022/07/31 10:07:09;;;;;;;2.27;2.10;;;33.80;48.80;;;;;;4979291;28;20552;-67
2022/07/31 10:09:40;;;;;;;2.30;2.20;;;34.70;46.90;;;;;;4977555;28;20458;-68
2022/07/31 10:12:11;;;;;;;4.10;2.70;;;35.70;45.70;;;;;;4978156;28;20512;-68
2022/07/31 10:14:40;;;;;;;2.23;2.07;;;36.90;44.50;;;;;;4976470;28;20497;-68
2022/07/31 10:17:10;;;;;;;2.67;1.80;;;37.60;43.90;;;;;;4975861;28;20458;-69
2022/07/31 10:19:41;;;;;;;2.13;2.03;;;38.30;43.30;;;;;;4975466;28;20872;-68
2022/07/31 10:22:11;;;;;;;2.23;2.10;;;38.80;41.40;;;;;;4975258;28;20474;-68
2022/07/31 10:24:42;;;;;;;3.43;2.23;;;39.30;43.00;;;;;;4975013;28;20463;-68
2022/07/31 10:27:09;;;;;;;1.50;1.50;;;39.90;42.10;;;;;;4976082;28;20186;-69
2022/07/31 10:29:37;;;;;;;2.57;2.17;;;40.30;39.20;;;;;;4975181;28;20206;-68
2022/07/31 10:32:06;;;;;;;1.70;1.50;;;39.70;38.40;;;;;;4974978;28;20231;-67
2022/07/31 10:34:35;;;;;;;1.90;1.80;;;39.50;39.50;;;;;;4975190;28;20456;-76
2022/07/31 10:37:07;;;;;;;2.20;2.00;;;39.20;39.40;;;;;;4974982;28;20458;-67
2022/07/31 10:39:41;;;;;;;1.83;1.73;;;39.60;39.20;;;;;;4975030;28;20446;-68
2022/07/31 10:42:17;;;;;;;4.27;1.93;;;39.80;40.00;;;;;;4974790;28;20874;-67
2022/07/31 10:44:46;;;;;;;2.40;2.30;;;39.80;38.80;;;;;;4974490;28;20186;-67
2022/07/31 10:47:13;;;;;;;1.83;1.73;;;39.70;39.80;;;;;;4974932;28;20457;-67
2022/07/31 10:49:43;;;;;;;2.20;2.00;;;39.70;39.60;;;;;;4974556;28;20250;-68
2022/07/31 10:52:10;;;;;;;1.70;1.60;;;39.80;39.40;;;;;;4974856;28;20226;-68
2022/07/31 10:54:42;;;;;;;2.60;2.07;;;40.10;40.40;;;;;;4974802;28;20207;-68
2022/07/31 10:57:09;;;;;;;1.93;1.87;;;40.50;38.40;;;;;;4974695;28;20202;-68
2022/07/31 10:59:36;;;;;;;3.40;1.80;;;40.80;38.00;;;;;;4974918;28;20199;-68
2022/07/31 11:02:03;;;;;;;1.57;1.50;;;40.80;38.70;;;;;;4974502;28;20223;-68
2022/07/31 11:04:31;;;;;;;1.67;1.67;;;40.90;39.20;;;;;;4974816;28;20202;-68
2022/07/31 11:07:00;;;;;;;1.70;1.60;;;41.40;38.00;;;;;;4974718;28;20202;-67
2022/07/31 11:09:28;;;;;;;1.67;1.60;;;40.40;38.10;;;;;;4974807;28;20226;-67
2022/07/31 11:11:56;;;;;;;2.83;1.77;;;39.90;37.80;;;;;;4974622;28;20310;-67
2022/07/31 11:14:33;;;;;;;2.07;1.87;;;39.40;38.50;;;;;;4974606;28;21025;-67
2022/07/31 11:17:00;;;;;;;1.83;1.80;;;38.70;39.00;;;;;;4974297;28;20513;-66
2022/07/31 11:19:38;;;;;;;2.20;1.97;;;37.90;40.50;;;;;;4975044;28;20453;-67
2022/07/31 11:22:11;;;;;;;2.27;2.07;;;37.60;41.00;;;;;;4974583;28;20470;-67
2022/07/31 11:24:38;;;;;;;2.13;2.00;;;37.20;40.90;;;;;;4978180;28;20812;-67
2022/07/31 11:27:06;;;;;;;2.23;2.00;;;36.50;42.00;;;;;;4978330;28;20481;-67
2022/07/31 11:29:35;;;;;;;3.67;2.43;;;36.70;42.70;;;;;;4978343;28;20454;-68
2022/07/31 11:32:13;;;;;;;2.40;1.90;;;36.70;41.90;;;;;;4978613;28;20517;-66
2022/07/31 11:34:46;;;;;;;1.83;1.73;;;36.70;42.70;;;;;;4978223;28;20465;-67
2022/07/31 11:37:17;;;;;;;2.87;2.47;;;36.80;42.30;;;;;;4977896;28;20457;-70
2022/07/31 11:39:44;;;;;;;1.93;1.80;;;36.60;41.30;;;;;;4978069;28;20906;-68
2022/07/31 11:42:10;;;;;;;2.60;1.80;;;36.10;41.80;;;;;;4977941;28;20473;-67
2022/07/31 11:44:37;;;;;;;2.40;1.83;;;35.90;42.20;;;;;;4977928;28;20454;-67
2022/07/31 11:47:04;;;;;;;2.37;2.00;;;35.90;42.80;;;;;;4977867;28;20486;-68
2022/07/31 11:49:34;;;;;;;1.77;1.70;;;36.00;42.60;;;;;;4977842;28;20537;-66
2022/07/31 11:52:02;;;;;;;1.57;1.47;;;35.80;42.10;;;;;;4977667;28;20485;-67
2022/07/31 11:54:30;;;;;;;1.87;1.73;;;35.60;42.80;;;;;;4978322;28;20544;-67
2022/07/31 11:56:57;;;;;;;4.20;1.87;;;35.40;42.80;;;;;;4978685;28;20829;-66
2022/07/31 11:59:30;;;;;;;2.07;2.07;;;35.10;43.10;;;;;;4977606;28;20968;-65
2022/07/31 12:02:04;;;;;;;2.30;2.00;;;34.90;44.50;;;;;;4977248;28;20477;-67
2022/07/31 12:04:31;;;;;;;2.10;2.00;;;34.30;44.40;;;;;;4977859;28;20442;-67
2022/07/31 12:06:58;;;;;;;1.80;1.70;;;33.80;45.70;;;;;;4978008;28;20454;-68
2022/07/31 12:09:25;;;;;;;2.13;2.03;;;33.70;46.20;;;;;;4977211;28;20465;-67
2022/07/31 12:11:53;;;;;;;2.33;2.00;;;33.70;46.10;;;;;;4977652;28;20490;-68
2022/07/31 12:14:28;;;;;;;1.80;1.70;;;33.60;46.50;;;;;;4976493;28;20917;-68
2022/07/31 12:16:55;;;;;;;2.17;2.00;;;33.50;45.50;;;;;;4977647;28;20205;-67
2022/07/31 12:19:26;;;;;;;2.53;1.90;;;33.20;45.00;;;;;;4977453;28;20461;-66
2022/07/31 12:21:53;;;;;;;3.60;2.47;;;33.00;45.80;;;;;;4977247;28;20517;-66
2022/07/31 12:24:20;;;;;;;3.33;2.80;;;33.10;47.40;;;;;;4977483;28;20869;-67
2022/07/31 12:26:51;;;;;;;2.57;2.13;;;33.20;46.90;;;;;;4977213;28;20462;-66
2022/07/31 12:29:20;;;;;;;2.10;1.93;;;33.30;48.00;;;;;;4977212;28;20443;-66
2022/07/31 12:31:49;;;;;;;2.00;1.80;;;33.50;46.30;;;;;;4976735;28;20489;-67
2022/07/31 12:34:26;;;;;;;2.00;1.90;;;33.90;46.70;;;;;;4975923;28;20501;-67
2022/07/31 12:37:04;;;;;;;4.23;2.23;;;34.00;45.00;;;;;;4977087;28;20796;-66
2022/07/31 12:39:36;;;;;;;2.77;2.37;;;34.00;45.60;;;;;;4976798;28;20949;-67
2022/07/31 12:42:03;;;;;;;3.10;1.83;;;33.90;46.20;;;;;;4976924;28;20470;-66
2022/07/31 12:44:31;;;;;;;2.37;2.17;;;33.80;44.60;;;;;;4976694;28;20458;-65
2022/07/31 12:46:58;;;;;;;2.17;2.07;;;33.90;45.80;;;;;;4976696;28;20512;-65
2022/07/31 12:49:25;;;;;;;2.30;2.20;;;33.80;45.40;;;;;;4976594;28;20455;-65
2022/07/31 12:51:51;;;;;;;2.30;2.10;;;33.60;44.50;;;;;;4976424;28;20478;-65
2022/07/31 12:54:18;;;;;;;4.73;2.00;;;33.30;45.30;;;;;;4976524;28;20549;-65
2022/07/31 12:56:46;;;;;;;2.03;1.93;;;33.10;46.60;;;;;;4976714;28;20458;-65
2022/07/31 12:59:14;;;;;;;2.10;2.00;;;32.90;46.70;;;;;;4976634;28;20493;-65
2022/07/31 13:01:42;;;;;;;2.83;2.40;;;32.70;47.50;;;;;;4976003;28;20497;-65
2022/07/31 13:04:09;;;;;;;2.50;2.20;;;32.40;47.20;;;;;;4976006;28;20973;-65
2022/07/31 13:06:37;;;;;;;2.50;2.30;;;32.00;47.90;;;;;;4976364;28;20556;-65
2022/07/31 13:09:04;;;;;;;6.10;2.20;;;31.90;48.50;;;;;;4976271;28;20465;-65
2022/07/31 13:11:32;;;;;;;2.33;2.03;;;31.60;48.30;;;;;;4975970;28;20533;-65
2022/07/31 13:13:59;;;;;;;3.93;3.60;;;31.40;48.70;;;;;;4976038;28;20490;-65
2022/07/31 13:16:26;;;;;;;2.50;2.40;;;31.40;49.60;;;;;;4975625;28;20462;-65
2022/07/31 13:18:54;;;;;;;2.53;2.40;;;31.30;49.00;;;;;;4975967;28;20466;-65
2022/07/31 13:21:21;;;;;;;2.57;2.47;;;31.30;50.10;;;;;;4975892;28;20474;-65
2022/07/31 13:23:48;;;;;;;2.50;2.30;;;31.40;49.60;;;;;;4975844;28;20481;-65
2022/07/31 13:26:15;;;;;;;3.10;2.87;;;31.40;49.80;;;;;;4975657;28;20461;-65
2022/07/31 13:28:41;;;;;;;2.80;2.60;;;31.40;49.60;;;;;;4975913;28;20509;-65
2022/07/31 13:31:08;;;;;;;3.00;2.80;;;31.50;49.70;;;;;;4976151;28;20485;-65
2022/07/31 13:33:35;;;;;;;2.60;2.40;;;31.90;49.70;;;;;;4976212;28;20461;-66
2022/07/31 13:36:04;;;;;;;3.53;2.30;;;32.10;49.80;;;;;;4975640;28;20454;-65
2022/07/31 13:38:31;;;;;;;2.50;2.10;;;32.50;48.10;;;;;;4975721;28;20454;-65
2022/07/31 13:43:42;;;;;;;2.23;2.03;;;32.80;47.20;;;;;;4975760;28;20417;-65
2022/07/31 13:46:09;;;;;;;1.73;1.63;;;33.30;48.10;;;;;;4975390;28;20458;-68
2022/07/31 13:48:35;;;;;;;4.07;2.43;;;33.60;46.70;;;;;;4975724;28;20447;-65
2022/07/31 13:51:04;;;;;;;1.63;1.53;;;33.70;44.60;;;;;;4975551;28;20478;-64
2022/07/31 13:53:31;;;;;;;1.90;1.80;;;33.70;45.40;;;;;;4975474;28;20474;-65
2022/07/31 13:55:58;;;;;;;2.53;2.13;;;33.60;44.50;;;;;;4976286;28;20473;-65
2022/07/31 13:58:26;;;;;;;2.00;1.90;;;33.70;45.00;;;;;;4975370;28;20799;-64
2022/07/31 14:00:53;;;;;;;2.93;2.00;;;33.60;44.30;;;;;;4975131;28;20528;-65
2022/07/31 14:03:19;;;;;;;2.97;1.80;;;33.60;45.30;;;;;;4975300;28;20807;-64
2022/07/31 14:05:46;;;;;;;2.07;1.87;;;33.40;44.80;;;;;;4975126;28;20833;-64
2022/07/31 14:08:14;;;;;;;2.17;2.07;;;33.30;44.10;;;;;;4975209;28;20462;-64
2022/07/31 14:10:41;;;;;;;5.83;2.20;;;32.90;44.60;;;;;;4975201;28;20500;-64
2022/07/31 14:13:08;;;;;;;4.40;1.97;;;32.70;45.30;;;;;;4975167;28;20487;-64
2022/07/31 14:15:35;;;;;;;2.87;2.17;;;32.90;46.60;;;;;;4975304;28;20447;-72
2022/07/31 14:18:02;;;;;;;1.80;1.70;;;33.00;45.90;;;;;;4975183;28;20468;-64
2022/07/31 14:20:31;;;;;;;1.93;1.70;;;33.30;44.20;;;;;;4974974;28;20454;-64
2022/07/31 14:22:58;;;;;;;3.37;1.70;;;33.50;44.30;;;;;;4975135;28;20538;-65
2022/07/31 14:25:26;;;;;;;1.83;1.73;;;33.70;43.10;;;;;;4975448;28;20462;-65
2022/07/31 14:27:53;;;;;;;2.30;2.10;;;34.00;44.00;;;;;;4975038;28;20469;-67
2022/07/31 14:30:20;;;;;;;1.90;1.80;;;34.10;44.10;;;;;;4974683;28;20457;-64
2022/07/31 14:32:47;;;;;;;1.87;1.70;;;34.20;44.10;;;;;;4974434;28;20477;-66
2022/07/31 14:35:14;;;;;;;1.67;1.60;;;34.10;44.00;;;;;;4975028;28;20458;-65
2022/07/31 14:37:41;;;;;;;2.03;1.60;;;33.90;42.30;;;;;;4974879;28;20481;-64
2022/07/31 14:40:09;;;;;;;2.10;1.80;;;33.80;43.30;;;;;;4974897;28;20504;-64
2022/07/31 14:42:37;;;;;;;5.23;2.20;;;34.00;44.30;;;;;;4974852;28;20855;-64
2022/07/31 14:45:05;;;;;;;2.03;1.93;;;34.00;43.90;;;;;;4974447;28;20959;-64
2022/07/31 14:47:32;;;;;;;1.97;1.87;;;34.10;43.50;;;;;;4975156;28;20937;-64
2022/07/31 14:49:59;;;;;;;1.47;1.47;;;34.00;43.50;;;;;;4974388;28;20946;-64
2022/07/31 14:52:26;;;;;;;3.77;2.00;;;34.20;43.80;;;;;;4974665;28;20489;-65
2022/07/31 14:54:53;;;;;;;2.07;1.97;;;34.20;43.70;;;;;;4974759;28;20462;-64
2022/07/31 14:57:19;;;;;;;2.00;1.90;;;34.20;43.00;;;;;;4975213;28;20463;-64
2022/07/31 14:59:47;;;;;;;4.70;2.07;;;34.40;43.60;;;;;;4978638;28;20471;-64
2022/07/31 15:02:14;;;;;;;1.80;1.70;;;34.60;44.10;;;;;;4978136;28;20481;-64
2022/07/31 15:04:41;;;;;;;2.10;2.00;;;34.60;43.70;;;;;;4978480;28;20458;-64
2022/07/31 15:07:07;;;;;;;4.20;2.03;;;34.70;44.00;;;;;;4978187;28;20969;-64
2022/07/31 15:09:34;;;;;;;3.50;1.63;;;34.80;43.60;;;;;;4978571;28;20460;-64
2022/07/31 15:12:01;;;;;;;4.30;1.90;;;34.80;43.90;;;;;;4978038;28;20482;-64
2022/07/31 15:14:27;;;;;;;1.90;1.80;;;34.80;43.60;;;;;;4978339;28;20457;-64
2022/07/31 15:16:56;;;;;;;2.30;2.00;;;34.70;42.90;;;;;;4978163;28;20465;-64
2022/07/31 15:19:22;;;;;;;5.53;1.93;;;34.60;43.20;;;;;;4978212;28;20963;-64
2022/07/31 15:21:49;;;;;;;1.93;1.83;;;34.30;43.30;;;;;;4978057;28;20474;-64
2022/07/31 15:24:16;;;;;;;2.13;2.03;;;34.00;43.60;;;;;;4977770;28;20464;-64
2022/07/31 15:26:42;;;;;;;2.30;2.10;;;34.00;44.40;;;;;;4978111;28;20465;-64
2022/07/31 15:29:09;;;;;;;4.77;2.10;;;33.90;44.50;;;;;;4978113;28;20454;-64
2022/07/31 15:31:36;;;;;;;6.43;2.00;;;33.80;44.40;;;;;;4978643;28;20513;-64
2022/07/31 15:34:04;;;;;;;2.70;1.77;;;33.70;45.10;;;;;;4977939;28;21074;-64
2022/07/31 15:36:30;;;;;;;4.00;1.90;;;33.70;44.80;;;;;;4978166;28;20457;-63
2022/07/31 15:38:57;;;;;;;4.80;1.70;;;33.60;45.70;;;;;;4978075;28;20461;-63
2022/07/31 15:41:24;;;;;;;3.30;2.03;;;33.70;45.70;;;;;;4977746;28;20484;-65
2022/07/31 15:43:51;;;;;;;2.43;2.23;;;33.70;45.20;;;;;;4977812;28;20454;-63
2022/07/31 15:46:17;;;;;;;1.83;1.73;;;33.80;45.30;;;;;;4977545;28;20474;-63
2022/07/31 15:48:44;;;;;;;3.70;2.13;;;33.80;44.20;;;;;;4977552;28;20458;-63
2022/07/31 15:51:12;;;;;;;2.10;2.00;;;33.60;45.10;;;;;;4977465;28;20474;-63
2022/07/31 15:53:39;;;;;;;1.93;1.83;;;33.60;45.20;;;;;;4977152;28;20670;-63
2022/07/31 15:56:06;;;;;;;2.37;2.17;;;33.70;45.40;;;;;;4977527;28;20549;-63
2022/07/31 15:58:32;;;;;;;4.10;1.90;;;33.80;45.50;;;;;;4977444;28;20454;-63
2022/07/31 16:00:59;;;;;;;2.50;1.90;;;34.00;45.40;;;;;;4977257;28;21015;-63
2022/07/31 16:03:26;;;;;;;2.30;2.00;;;34.00;44.20;;;;;;4977416;28;20481;-63
2022/07/31 16:05:53;;;;;;;2.23;1.90;;;34.00;43.80;;;;;;4977388;28;20454;-63
2022/07/31 16:08:21;;;;;;;2.10;2.00;;;34.00;44.10;;;;;;4976617;28;20979;-63
2022/07/31 16:10:48;;;;;;;2.10;2.00;;;33.80;44.60;;;;;;4977284;28;20827;-63
2022/07/31 16:13:14;;;;;;;2.33;2.13;;;33.80;45.20;;;;;;4976949;28;21012;-64
2022/07/31 16:15:41;;;;;;;2.23;2.13;;;33.80;44.70;;;;;;4977314;28;20462;-64
2022/07/31 16:18:08;;;;;;;2.70;2.00;;;33.90;45.50;;;;;;4977305;28;20459;-64
2022/07/31 16:20:34;;;;;;;2.77;2.13;;;33.80;44.80;;;;;;4977089;28;20509;-64
2022/07/31 16:23:01;;;;;;;1.93;1.70;;;33.60;44.80;;;;;;4976803;28;20946;-64
2022/07/31 16:25:31;;;;;;;2.13;1.93;;;33.40;45.30;;;;;;4977092;28;20509;-64
2022/07/31 16:27:58;;;;;;;1.90;1.80;;;33.30;46.30;;;;;;4976950;28;20450;-64
2022/07/31 16:30:26;;;;;;;5.28;2.05;;;33.20;46.50;;;;;;4976073;28;20795;-64
2022/07/31 16:32:52;;;;;;;2.00;1.90;;;33.00;45.90;;;;;;4976793;28;20307;-64
2022/07/31 16:35:19;;;;;;;4.57;1.97;;;32.70;46.70;;;;;;4976522;28;21140;-64
2022/07/31 16:37:46;;;;;;;2.17;2.07;;;32.60;46.90;;;;;;4977006;28;20454;-64
2022/07/31 16:40:13;;;;;;;2.07;2.00;;;32.60;46.90;;;;;;4976723;28;20946;-64
2022/07/31 16:42:41;;;;;;;2.30;2.10;;;32.40;46.90;;;;;;4976895;28;20470;-65
2022/07/31 16:45:09;;;;;;;5.07;2.03;;;32.20;47.60;;;;;;4976840;28;20464;-65
2022/07/31 16:47:36;;;;;;;4.87;2.20;;;32.00;47.50;;;;;;4976634;28;20489;-64
2022/07/31 16:50:03;;;;;;;6.20;2.87;;;31.80;48.20;;;;;;4976771;28;20453;-64
2022/07/31 16:52:29;;;;;;;2.70;2.20;;;31.70;49.00;;;;;;4976413;28;20478;-64